Forside
METAR-TAF:

METAR-TAF

Lufthavne :

London-Southend, England

Breddekreds: 51-34N, længdekreds: 000-42E, højde: 15 m

Aktuelle vejr

Denne rapport blev lavet for 35 minutter siden, kl. 13:50 UTC
Vind 9 kt fra øst
Temperatur 8°C
Fugtighed 57%
Tryk 1031 hPa
Sigt 10 km eller mere
Nogle få skyer i en højde af 3300 ft

METAR: EGMC 311350Z 09009KT 9999 FEW033 08/00 Q1031

Tid: 15:25 (14:25 UTC)

Vejrudsigter

Denne rapport blev lavet for 3 timer og 25 minutter siden, kl. 11:00 UTC
Foreløbig gælder fra 31 på 12 UTC til 31 på 21 UTC
Vind 13 kt fra østnordøst
Sigt 10 km eller mere
Nogle få skyer i en højde af 2500 ft

TAF: EGMC 311100Z 3112/3121 06013KT 9999 FEW025

Vejrobservationer og prognoser fra mere end 4000 lufthavne (METAR og TAF).

De gule og røde prikker repræsenterer de meteorologiske stationer.

Flyt musen over at se navnet på stationen.

Så klik over at se vejr observationer og prognoser.

At skifte det kort: Klik på de grønne knapper med et sort kors for at zoome ind; på den grønne knap med en bindestreg for at zoome ud; eller på de grønne pile for tilstødende kort.


METAR-TAF: